sensor_id;sensor_type;location;lat;lon;timestamp;temperature;humidity
49236;DHT22;35067;48.134;8.378;2023-05-07T00:00:46;10.50;99.90
49236;DHT22;35067;48.134;8.378;2023-05-07T00:01:47;10.50;99.90
49236;DHT22;35067;48.134;8.378;2023-05-07T00:02:47;10.50;99.90
49236;DHT22;35067;48.134;8.378;2023-05-07T00:03:49;10.50;99.90
49236;DHT22;35067;48.134;8.378;2023-05-07T00:04:50;10.50;99.90
49236;DHT22;35067;48.134;8.378;2023-05-07T00:05:52;10.40;99.90
49236;DHT22;35067;48.134;8.378;2023-05-07T00:06:56;10.30;99.90
49236;DHT22;35067;48.134;8.378;2023-05-07T00:07:56;11.90;99.90
49236;DHT22;35067;48.134;8.378;2023-05-07T00:08:58;10.40;99.90
49236;DHT22;35067;48.134;8.378;2023-05-07T00:09:58;10.40;99.90
49236;DHT22;35067;48.134;8.378;2023-05-07T00:10:59;11.70;99.90
49236;DHT22;35067;48.134;8.378;2023-05-07T00:12:00;10.30;99.90
49236;DHT22;35067;48.134;8.378;2023-05-07T00:13:01;10.90;99.90
49236;DHT22;35067;48.134;8.378;2023-05-07T00:14:02;11.50;99.90
49236;DHT22;35067;48.134;8.378;2023-05-07T00:15:03;10.30;99.90
49236;DHT22;35067;48.134;8.378;2023-05-07T00:16:05;10.30;99.90
49236;DHT22;35067;48.134;8.378;2023-05-07T00:17:05;10.30;99.90
49236;DHT22;35067;48.134;8.378;2023-05-07T00:18:06;10.30;99.90
49236;DHT22;35067;48.134;8.378;2023-05-07T00:19:07;10.30;99.90
49236;DHT22;35067;48.134;8.378;2023-05-07T00:20:08;10.30;99.90
49236;DHT22;35067;48.134;8.378;2023-05-07T00:21:09;10.20;99.90
49236;DHT22;35067;48.134;8.378;2023-05-07T00:22:09;10.20;99.90
49236;DHT22;35067;48.134;8.378;2023-05-07T00:23:10;10.20;99.90
49236;DHT22;35067;48.134;8.378;2023-05-07T00:24:11;10.20;99.90
49236;DHT22;35067;48.134;8.378;2023-05-07T00:25:11;11.70;99.90
49236;DHT22;35067;48.134;8.378;2023-05-07T00:26:12;10.20;99.90
49236;DHT22;35067;48.134;8.378;2023-05-07T00:27:13;10.80;99.90
49236;DHT22;35067;48.134;8.378;2023-05-07T00:28:14;10.20;99.90
49236;DHT22;35067;48.134;8.378;2023-05-07T00:29:14;10.20;99.90
49236;DHT22;35067;48.134;8.378;2023-05-07T00:30:15;10.30;99.90
49236;DHT22;35067;48.134;8.378;2023-05-07T00:31:16;10.20;99.90
49236;DHT22;35067;48.134;8.378;2023-05-07T00:32:17;10.30;99.90
49236;DHT22;35067;48.134;8.378;2023-05-07T00:33:17;10.30;99.90
49236;DHT22;35067;48.134;8.378;2023-05-07T00:34:18;10.30;99.90
49236;DHT22;35067;48.134;8.378;2023-05-07T00:35:20;10.40;99.90
49236;DHT22;35067;48.134;8.378;2023-05-07T00:36:21;10.30;99.90
49236;DHT22;35067;48.134;8.378;2023-05-07T00:37:21;10.40;99.90
49236;DHT22;35067;48.134;8.378;2023-05-07T00:38:22;10.40;99.90
49236;DHT22;35067;48.134;8.378;2023-05-07T00:39:23;10.40;99.90
49236;DHT22;35067;48.134;8.378;2023-05-07T00:40:23;10.30;99.90
49236;DHT22;35067;48.134;8.378;2023-05-07T00:41:24;10.20;99.90
49236;DHT22;35067;48.134;8.378;2023-05-07T00:42:25;10.30;99.90
49236;DHT22;35067;48.134;8.378;2023-05-07T00:43:26;10.30;99.90
49236;DHT22;35067;48.134;8.378;2023-05-07T00:44:28;10.30;99.90
49236;DHT22;35067;48.134;8.378;2023-05-07T00:45:29;10.30;99.90
49236;DHT22;35067;48.134;8.378;2023-05-07T00:46:30;11.10;99.90
49236;DHT22;35067;48.134;8.378;2023-05-07T00:47:31;10.40;99.90
49236;DHT22;35067;48.134;8.378;2023-05-07T00:48:32;10.30;99.90
49236;DHT22;35067;48.134;8.378;2023-05-07T00:49:41;10.40;99.90
49236;DHT22;35067;48.134;8.378;2023-05-07T00:50:43;10.40;99.90
49236;DHT22;35067;48.134;8.378;2023-05-07T00:51:45;10.40;99.90
49236;DHT22;35067;48.134;8.378;2023-05-07T00:52:46;10.40;99.90
49236;DHT22;35067;48.134;8.378;2023-05-07T00:53:47;11.70;99.90
49236;DHT22;35067;48.134;8.378;2023-05-07T00:54:48;10.40;99.90
49236;DHT22;35067;48.134;8.378;2023-05-07T00:55:49;10.40;99.90
49236;DHT22;35067;48.134;8.378;2023-05-07T00:56:49;10.40;99.90
49236;DHT22;35067;48.134;8.378;2023-05-07T00:57:51;10.50;99.90
49236;DHT22;35067;48.134;8.378;2023-05-07T00:58:52;10.50;99.90
49236;DHT22;35067;48.134;8.378;2023-05-07T00:59:53;10.50;99.90
49236;DHT22;35067;48.134;8.378;2023-05-07T01:00:54;10.50;99.90
49236;DHT22;35067;48.134;8.378;2023-05-07T01:01:54;10.50;99.90
49236;DHT22;35067;48.134;8.378;2023-05-07T01:02:55;10.50;99.90
49236;DHT22;35067;48.134;8.378;2023-05-07T01:03:56;10.40;99.90
49236;DHT22;35067;48.134;8.378;2023-05-07T01:04:57;12.30;99.90
49236;DHT22;35067;48.134;8.378;2023-05-07T01:05:59;10.30;99.90
49236;DHT22;35067;48.134;8.378;2023-05-07T01:07:01;10.40;99.90
49236;DHT22;35067;48.134;8.378;2023-05-07T01:08:03;10.40;99.90
49236;DHT22;35067;48.134;8.378;2023-05-07T01:09:05;10.40;99.90
49236;DHT22;35067;48.134;8.378;2023-05-07T01:10:07;10.30;99.90
49236;DHT22;35067;48.134;8.378;2023-05-07T01:11:09;10.30;99.90
49236;DHT22;35067;48.134;8.378;2023-05-07T01:12:11;10.20;99.90
49236;DHT22;35067;48.134;8.378;2023-05-07T01:13:12;11.20;99.90
49236;DHT22;35067;48.134;8.378;2023-05-07T01:14:14;10.30;99.90
49236;DHT22;35067;48.134;8.378;2023-05-07T01:15:15;10.20;99.90
49236;DHT22;35067;48.134;8.378;2023-05-07T01:16:16;10.20;99.90
49236;DHT22;35067;48.134;8.378;2023-05-07T01:17:17;10.20;99.90
49236;DHT22;35067;48.134;8.378;2023-05-07T01:18:18;10.90;99.90
49236;DHT22;35067;48.134;8.378;2023-05-07T01:19:19;10.30;99.90
49236;DHT22;35067;48.134;8.378;2023-05-07T01:20:20;10.30;99.90
49236;DHT22;35067;48.134;8.378;2023-05-07T01:21:25;10.50;99.90
49236;DHT22;35067;48.134;8.378;2023-05-07T01:22:31;10.30;99.90
49236;DHT22;35067;48.134;8.378;2023-05-07T01:23:39;10.40;99.90
49236;DHT22;35067;48.134;8.378;2023-05-07T01:24:41;11.10;99.90
49236;DHT22;35067;48.134;8.378;2023-05-07T01:25:42;11.90;99.90
49236;DHT22;35067;48.134;8.378;2023-05-07T01:26:44;10.30;99.90
49236;DHT22;35067;48.134;8.378;2023-05-07T01:27:45;10.30;99.90
49236;DHT22;35067;48.134;8.378;2023-05-07T01:28:46;10.40;99.90
49236;DHT22;35067;48.134;8.378;2023-05-07T01:29:46;10.40;99.90
49236;DHT22;35067;48.134;8.378;2023-05-07T01:30:52;10.40;99.90
49236;DHT22;35067;48.134;8.378;2023-05-07T01:32:00;10.40;99.90
49236;DHT22;35067;48.134;8.378;2023-05-07T01:33:06;10.40;99.90
49236;DHT22;35067;48.134;8.378;2023-05-07T01:34:11;12.50;99.90
49236;DHT22;35067;48.134;8.378;2023-05-07T01:35:19;10.40;99.90
49236;DHT22;35067;48.134;8.378;2023-05-07T01:36:21;10.40;99.90
49236;DHT22;35067;48.134;8.378;2023-05-07T01:37:26;10.40;99.90
49236;DHT22;35067;48.134;8.378;2023-05-07T01:38:27;12.00;99.90
49236;DHT22;35067;48.134;8.378;2023-05-07T01:39:29;10.30;99.90
49236;DHT22;35067;48.134;8.378;2023-05-07T01:40:30;11.40;99.90
49236;DHT22;35067;48.134;8.378;2023-05-07T01:41:31;10.30;99.90
49236;DHT22;35067;48.134;8.378;2023-05-07T01:42:32;10.30;99.90
49236;DHT22;35067;48.134;8.378;2023-05-07T01:43:33;10.30;99.90
49236;DHT22;35067;48.134;8.378;2023-05-07T01:44:34;11.00;99.90
49236;DHT22;35067;48.134;8.378;2023-05-07T01:45:35;10.40;99.90
49236;DHT22;35067;48.134;8.378;2023-05-07T01:46:36;10.30;99.90
49236;DHT22;35067;48.134;8.378;2023-05-07T01:47:37;10.40;99.90
49236;DHT22;35067;48.134;8.378;2023-05-07T01:48:38;10.80;99.90
49236;DHT22;35067;48.134;8.378;2023-05-07T01:49:40;10.90;99.90
49236;DHT22;35067;48.134;8.378;2023-05-07T01:50:43;10.40;99.90
49236;DHT22;35067;48.134;8.378;2023-05-07T01:51:44;10.40;99.90
49236;DHT22;35067;48.134;8.378;2023-05-07T01:52:46;10.30;99.90
49236;DHT22;35067;48.134;8.378;2023-05-07T01:53:48;10.30;99.90
49236;DHT22;35067;48.134;8.378;2023-05-07T01:54:51;10.20;99.90
49236;DHT22;35067;48.134;8.378;2023-05-07T01:55:51;10.10;99.90
49236;DHT22;35067;48.134;8.378;2023-05-07T01:56:52;10.10;99.90
49236;DHT22;35067;48.134;8.378;2023-05-07T01:57:53;10.00;99.90
49236;DHT22;35067;48.134;8.378;2023-05-07T01:58:53;10.00;99.90
49236;DHT22;35067;48.134;8.378;2023-05-07T01:59:54;10.00;99.90
49236;DHT22;35067;48.134;8.378;2023-05-07T02:00:55;10.50;99.90
49236;DHT22;35067;48.134;8.378;2023-05-07T02:01:56;9.80;99.90
49236;DHT22;35067;48.134;8.378;2023-05-07T02:02:57;9.80;99.90
49236;DHT22;35067;48.134;8.378;2023-05-07T02:03:57;9.80;99.90
49236;DHT22;35067;48.134;8.378;2023-05-07T02:04:59;9.80;99.90
49236;DHT22;35067;48.134;8.378;2023-05-07T02:06:00;9.90;99.90
49236;DHT22;35067;48.134;8.378;2023-05-07T02:07:01;10.00;99.90
49236;DHT22;35067;48.134;8.378;2023-05-07T02:08:02;10.60;99.90
49236;DHT22;35067;48.134;8.378;2023-05-07T02:09:03;10.00;99.90
49236;DHT22;35067;48.134;8.378;2023-05-07T02:10:04;11.80;99.90
49236;DHT22;35067;48.134;8.378;2023-05-07T02:11:05;10.00;99.90
49236;DHT22;35067;48.134;8.378;2023-05-07T02:12:06;10.00;99.90
49236;DHT22;35067;48.134;8.378;2023-05-07T02:13:06;9.90;99.90
49236;DHT22;35067;48.134;8.378;2023-05-07T02:14:07;9.90;99.90
49236;DHT22;35067;48.134;8.378;2023-05-07T02:15:08;9.80;99.90
49236;DHT22;35067;48.134;8.378;2023-05-07T02:16:09;9.80;99.90
49236;DHT22;35067;48.134;8.378;2023-05-07T02:17:11;9.80;99.90
49236;DHT22;35067;48.134;8.378;2023-05-07T02:18:11;9.80;99.90
49236;DHT22;35067;48.134;8.378;2023-05-07T02:19:12;9.80;99.90
49236;DHT22;35067;48.134;8.378;2023-05-07T02:20:12;9.80;99.90
49236;DHT22;35067;48.134;8.378;2023-05-07T02:21:13;9.90;99.90
49236;DHT22;35067;48.134;8.378;2023-05-07T02:22:14;9.80;99.90
49236;DHT22;35067;48.134;8.378;2023-05-07T02:23:15;9.80;99.90
49236;DHT22;35067;48.134;8.378;2023-05-07T02:24:16;9.80;99.90
49236;DHT22;35067;48.134;8.378;2023-05-07T02:25:17;9.70;99.90
49236;DHT22;35067;48.134;8.378;2023-05-07T02:26:18;9.80;99.90
49236;DHT22;35067;48.134;8.378;2023-05-07T02:27:18;9.80;99.90
49236;DHT22;35067;48.134;8.378;2023-05-07T02:28:19;9.80;99.90
49236;DHT22;35067;48.134;8.378;2023-05-07T02:29:20;9.70;99.90
49236;DHT22;35067;48.134;8.378;2023-05-07T02:30:20;9.60;99.90
49236;DHT22;35067;48.134;8.378;2023-05-07T02:31:25;9.60;99.90
49236;DHT22;35067;48.134;8.378;2023-05-07T02:32:25;9.70;99.90
49236;DHT22;35067;48.134;8.378;2023-05-07T02:33:26;9.60;99.90
49236;DHT22;35067;48.134;8.378;2023-05-07T02:34:27;9.60;99.90
49236;DHT22;35067;48.134;8.378;2023-05-07T02:35:28;9.70;99.90
49236;DHT22;35067;48.134;8.378;2023-05-07T02:36:28;9.70;99.90
49236;DHT22;35067;48.134;8.378;2023-05-07T02:37:29;9.60;99.90
49236;DHT22;35067;48.134;8.378;2023-05-07T02:38:29;9.60;99.90
49236;DHT22;35067;48.134;8.378;2023-05-07T02:39:30;9.50;99.90
49236;DHT22;35067;48.134;8.378;2023-05-07T02:40:31;9.60;99.90
49236;DHT22;35067;48.134;8.378;2023-05-07T02:41:34;9.50;99.90
49236;DHT22;35067;48.134;8.378;2023-05-07T02:42:35;9.50;99.90
49236;DHT22;35067;48.134;8.378;2023-05-07T02:43:35;9.50;99.90
49236;DHT22;35067;48.134;8.378;2023-05-07T02:44:36;9.50;99.90
49236;DHT22;35067;48.134;8.378;2023-05-07T02:45:37;9.50;99.90
49236;DHT22;35067;48.134;8.378;2023-05-07T02:46:38;9.50;99.90
49236;DHT22;35067;48.134;8.378;2023-05-07T02:47:38;9.50;99.90
49236;DHT22;35067;48.134;8.378;2023-05-07T02:48:39;9.50;99.90
49236;DHT22;35067;48.134;8.378;2023-05-07T02:49:40;9.50;99.90
49236;DHT22;35067;48.134;8.378;2023-05-07T02:50:40;9.40;99.90
49236;DHT22;35067;48.134;8.378;2023-05-07T02:51:41;9.50;99.90
49236;DHT22;35067;48.134;8.378;2023-05-07T02:52:42;9.50;99.90
49236;DHT22;35067;48.134;8.378;2023-05-07T02:53:42;9.50;99.90
49236;DHT22;35067;48.134;8.378;2023-05-07T02:54:43;10.40;99.90
49236;DHT22;35067;48.134;8.378;2023-05-07T02:55:44;9.60;99.90
49236;DHT22;35067;48.134;8.378;2023-05-07T02:56:44;9.60;99.90
49236;DHT22;35067;48.134;8.378;2023-05-07T02:57:45;9.60;99.90
49236;DHT22;35067;48.134;8.378;2023-05-07T02:58:46;9.60;99.90
49236;DHT22;35067;48.134;8.378;2023-05-07T02:59:46;9.60;99.90
49236;DHT22;35067;48.134;8.378;2023-05-07T03:00:47;9.70;99.90
49236;DHT22;35067;48.134;8.378;2023-05-07T03:01:48;9.70;99.90
49236;DHT22;35067;48.134;8.378;2023-05-07T03:02:48;9.70;99.90
49236;DHT22;35067;48.134;8.378;2023-05-07T03:03:49;10.50;99.90
49236;DHT22;35067;48.134;8.378;2023-05-07T03:04:50;9.70;99.90
49236;DHT22;35067;48.134;8.378;2023-05-07T03:05:51;10.50;99.90
49236;DHT22;35067;48.134;8.378;2023-05-07T03:06:51;9.70;99.90
49236;DHT22;35067;48.134;8.378;2023-05-07T03:07:52;9.70;99.90
49236;DHT22;35067;48.134;8.378;2023-05-07T03:08:53;9.70;99.90
49236;DHT22;35067;48.134;8.378;2023-05-07T03:09:53;9.70;99.90
49236;DHT22;35067;48.134;8.378;2023-05-07T03:10:54;9.70;99.90
49236;DHT22;35067;48.134;8.378;2023-05-07T03:11:56;9.60;99.90
49236;DHT22;35067;48.134;8.378;2023-05-07T03:12:57;10.40;99.90
49236;DHT22;35067;48.134;8.378;2023-05-07T03:13:58;9.60;99.90
49236;DHT22;35067;48.134;8.378;2023-05-07T03:14:58;9.60;99.90
49236;DHT22;35067;48.134;8.378;2023-05-07T03:15:59;10.40;99.90
49236;DHT22;35067;48.134;8.378;2023-05-07T03:17:00;9.60;99.90
49236;DHT22;35067;48.134;8.378;2023-05-07T03:18:01;9.50;99.90
49236;DHT22;35067;48.134;8.378;2023-05-07T03:19:01;9.50;99.90
49236;DHT22;35067;48.134;8.378;2023-05-07T03:20:03;9.40;99.90
49236;DHT22;35067;48.134;8.378;2023-05-07T03:21:04;9.30;99.90
49236;DHT22;35067;48.134;8.378;2023-05-07T03:22:04;9.30;99.90
49236;DHT22;35067;48.134;8.378;2023-05-07T03:23:05;9.30;99.90
49236;DHT22;35067;48.134;8.378;2023-05-07T03:24:06;9.30;99.90
49236;DHT22;35067;48.134;8.378;2023-05-07T03:25:08;9.30;99.90
49236;DHT22;35067;48.134;8.378;2023-05-07T03:26:09;9.30;99.90
49236;DHT22;35067;48.134;8.378;2023-05-07T03:27:09;9.30;99.90
49236;DHT22;35067;48.134;8.378;2023-05-07T03:28:10;9.30;99.90
49236;DHT22;35067;48.134;8.378;2023-05-07T03:29:11;9.40;99.90
49236;DHT22;35067;48.134;8.378;2023-05-07T03:30:12;9.40;99.90
49236;DHT22;35067;48.134;8.378;2023-05-07T03:31:13;9.40;99.90
49236;DHT22;35067;48.134;8.378;2023-05-07T03:32:13;9.30;99.90
49236;DHT22;35067;48.134;8.378;2023-05-07T03:33:14;10.20;99.90
49236;DHT22;35067;48.134;8.378;2023-05-07T03:34:16;9.30;99.90
49236;DHT22;35067;48.134;8.378;2023-05-07T03:35:22;9.30;99.90
49236;DHT22;35067;48.134;8.378;2023-05-07T03:36:23;9.30;99.90
49236;DHT22;35067;48.134;8.378;2023-05-07T03:37:24;9.20;99.90
49236;DHT22;35067;48.134;8.378;2023-05-07T03:38:25;9.20;99.90
49236;DHT22;35067;48.134;8.378;2023-05-07T03:39:27;9.20;99.90
49236;DHT22;35067;48.134;8.378;2023-05-07T03:40:27;9.20;99.90
49236;DHT22;35067;48.134;8.378;2023-05-07T03:41:28;9.10;99.90
49236;DHT22;35067;48.134;8.378;2023-05-07T03:42:30;9.20;99.90
49236;DHT22;35067;48.134;8.378;2023-05-07T03:43:30;9.20;99.90
49236;DHT22;35067;48.134;8.378;2023-05-07T03:44:31;9.20;99.90
49236;DHT22;35067;48.134;8.378;2023-05-07T03:45:32;9.20;99.90
49236;DHT22;35067;48.134;8.378;2023-05-07T03:46:33;9.20;99.90
49236;DHT22;35067;48.134;8.378;2023-05-07T03:47:34;9.20;99.90
49236;DHT22;35067;48.134;8.378;2023-05-07T03:48:35;9.10;99.90
49236;DHT22;35067;48.134;8.378;2023-05-07T03:49:36;9.10;99.90
49236;DHT22;35067;48.134;8.378;2023-05-07T03:50:37;9.10;99.90
49236;DHT22;35067;48.134;8.378;2023-05-07T03:51:38;9.10;99.90
49236;DHT22;35067;48.134;8.378;2023-05-07T03:52:39;9.00;99.90
49236;DHT22;35067;48.134;8.378;2023-05-07T03:53:39;9.00;99.90
49236;DHT22;35067;48.134;8.378;2023-05-07T03:54:40;10.90;99.90
49236;DHT22;35067;48.134;8.378;2023-05-07T03:55:41;9.10;99.90
49236;DHT22;35067;48.134;8.378;2023-05-07T03:56:42;9.10;99.90
49236;DHT22;35067;48.134;8.378;2023-05-07T03:57:42;9.10;99.90
49236;DHT22;35067;48.134;8.378;2023-05-07T03:58:43;9.00;99.90
49236;DHT22;35067;48.134;8.378;2023-05-07T03:59:44;9.00;99.90
49236;DHT22;35067;48.134;8.378;2023-05-07T04:00:44;9.00;99.90
49236;DHT22;35067;48.134;8.378;2023-05-07T04:01:46;9.00;99.90
49236;DHT22;35067;48.134;8.378;2023-05-07T04:02:46;9.00;99.90
49236;DHT22;35067;48.134;8.378;2023-05-07T04:03:47;9.00;99.90
49236;DHT22;35067;48.134;8.378;2023-05-07T04:04:48;10.90;99.90
49236;DHT22;35067;48.134;8.378;2023-05-07T04:05:50;9.00;99.90
49236;DHT22;35067;48.134;8.378;2023-05-07T04:06:50;9.00;99.90
49236;DHT22;35067;48.134;8.378;2023-05-07T04:07:51;9.10;99.90
49236;DHT22;35067;48.134;8.378;2023-05-07T04:08:52;9.90;99.90
49236;DHT22;35067;48.134;8.378;2023-05-07T04:09:53;9.20;99.90
49236;DHT22;35067;48.134;8.378;2023-05-07T04:10:57;9.20;99.90
49236;DHT22;35067;48.134;8.378;2023-05-07T04:11:58;9.30;99.90
49236;DHT22;35067;48.134;8.378;2023-05-07T04:12:59;9.30;99.90
49236;DHT22;35067;48.134;8.378;2023-05-07T04:13:59;9.30;99.90
49236;DHT22;35067;48.134;8.378;2023-05-07T04:15:00;9.20;99.90
49236;DHT22;35067;48.134;8.378;2023-05-07T04:16:02;9.20;99.90
49236;DHT22;35067;48.134;8.378;2023-05-07T04:17:04;9.30;99.90
49236;DHT22;35067;48.134;8.378;2023-05-07T04:18:06;9.30;99.90
49236;DHT22;35067;48.134;8.378;2023-05-07T04:19:06;9.30;99.90
49236;DHT22;35067;48.134;8.378;2023-05-07T04:20:13;9.30;99.90
49236;DHT22;35067;48.134;8.378;2023-05-07T04:21:19;9.40;99.90
49236;DHT22;35067;48.134;8.378;2023-05-07T04:22:20;9.30;99.90
49236;DHT22;35067;48.134;8.378;2023-05-07T04:23:21;9.40;99.90
49236;DHT22;35067;48.134;8.378;2023-05-07T04:24:22;9.30;99.90
49236;DHT22;35067;48.134;8.378;2023-05-07T04:25:22;9.30;99.90
49236;DHT22;35067;48.134;8.378;2023-05-07T04:26:26;9.30;99.90
49236;DHT22;35067;48.134;8.378;2023-05-07T04:27:28;9.50;99.90
49236;DHT22;35067;48.134;8.378;2023-05-07T04:28:28;9.40;99.90
49236;DHT22;35067;48.134;8.378;2023-05-07T04:29:29;9.40;99.90
49236;DHT22;35067;48.134;8.378;2023-05-07T04:30:29;9.40;99.90
49236;DHT22;35067;48.134;8.378;2023-05-07T04:31:30;9.40;99.90
49236;DHT22;35067;48.134;8.378;2023-05-07T04:32:32;9.40;99.90
49236;DHT22;35067;48.134;8.378;2023-05-07T04:33:33;10.40;99.90
49236;DHT22;35067;48.134;8.378;2023-05-07T04:34:34;9.40;99.90
49236;DHT22;35067;48.134;8.378;2023-05-07T04:35:35;9.30;99.90
49236;DHT22;35067;48.134;8.378;2023-05-07T04:36:36;9.30;99.90
49236;DHT22;35067;48.134;8.378;2023-05-07T04:37:38;9.30;99.90
49236;DHT22;35067;48.134;8.378;2023-05-07T04:38:39;9.30;99.90
49236;DHT22;35067;48.134;8.378;2023-05-07T04:39:40;9.30;99.90
49236;DHT22;35067;48.134;8.378;2023-05-07T04:40:40;9.30;99.90
49236;DHT22;35067;48.134;8.378;2023-05-07T04:41:41;9.30;99.90
49236;DHT22;35067;48.134;8.378;2023-05-07T04:42:42;9.30;99.90
49236;DHT22;35067;48.134;8.378;2023-05-07T04:43:43;9.30;99.90
49236;DHT22;35067;48.134;8.378;2023-05-07T04:44:44;10.60;99.90
49236;DHT22;35067;48.134;8.378;2023-05-07T04:45:45;9.40;99.90
49236;DHT22;35067;48.134;8.378;2023-05-07T04:46:46;9.40;99.90
49236;DHT22;35067;48.134;8.378;2023-05-07T04:47:47;11.50;99.90
49236;DHT22;35067;48.134;8.378;2023-05-07T04:48:47;9.50;99.90
49236;DHT22;35067;48.134;8.378;2023-05-07T04:49:48;9.50;99.90
49236;DHT22;35067;48.134;8.378;2023-05-07T04:50:49;9.50;99.90
49236;DHT22;35067;48.134;8.378;2023-05-07T04:51:50;9.50;99.90
49236;DHT22;35067;48.134;8.378;2023-05-07T04:52:51;9.60;99.90
49236;DHT22;35067;48.134;8.378;2023-05-07T04:53:52;9.60;99.90
49236;DHT22;35067;48.134;8.378;2023-05-07T04:54:52;11.00;99.90
49236;DHT22;35067;48.134;8.378;2023-05-07T04:55:56;10.40;99.90
49236;DHT22;35067;48.134;8.378;2023-05-07T04:56:58;10.80;99.90
49236;DHT22;35067;48.134;8.378;2023-05-07T04:57:58;9.70;99.90
49236;DHT22;35067;48.134;8.378;2023-05-07T04:59:01;9.70;99.90
49236;DHT22;35067;48.134;8.378;2023-05-07T05:00:02;9.70;99.90
49236;DHT22;35067;48.134;8.378;2023-05-07T05:01:04;10.70;99.90
49236;DHT22;35067;48.134;8.378;2023-05-07T05:02:05;9.80;99.90
49236;DHT22;35067;48.134;8.378;2023-05-07T05:03:06;9.80;99.90
49236;DHT22;35067;48.134;8.378;2023-05-07T05:04:07;9.80;99.90
49236;DHT22;35067;48.134;8.378;2023-05-07T05:05:08;9.90;99.90
49236;DHT22;35067;48.134;8.378;2023-05-07T05:06:09;9.90;99.90
49236;DHT22;35067;48.134;8.378;2023-05-07T05:07:10;9.90;99.90
49236;DHT22;35067;48.134;8.378;2023-05-07T05:08:10;9.90;99.90
49236;DHT22;35067;48.134;8.378;2023-05-07T05:09:11;9.80;99.90
49236;DHT22;35067;48.134;8.378;2023-05-07T05:10:12;9.80;99.90
49236;DHT22;35067;48.134;8.378;2023-05-07T05:11:13;9.80;99.90
49236;DHT22;35067;48.134;8.378;2023-05-07T05:12:13;9.90;99.90
49236;DHT22;35067;48.134;8.378;2023-05-07T05:13:14;10.00;99.90
49236;DHT22;35067;48.134;8.378;2023-05-07T05:14:15;10.10;99.90
49236;DHT22;35067;48.134;8.378;2023-05-07T05:15:15;10.10;99.90
49236;DHT22;35067;48.134;8.378;2023-05-07T05:16:16;10.10;99.90
49236;DHT22;35067;48.134;8.378;2023-05-07T05:17:17;10.20;99.90
49236;DHT22;35067;48.134;8.378;2023-05-07T05:18:17;10.30;99.90
49236;DHT22;35067;48.134;8.378;2023-05-07T05:19:18;10.30;99.90
49236;DHT22;35067;48.134;8.378;2023-05-07T05:20:20;10.50;99.90
49236;DHT22;35067;48.134;8.378;2023-05-07T05:21:21;10.60;99.90
49236;DHT22;35067;48.134;8.378;2023-05-07T05:22:22;10.60;99.90
49236;DHT22;35067;48.134;8.378;2023-05-07T05:23:22;10.70;99.90
49236;DHT22;35067;48.134;8.378;2023-05-07T05:24:23;11.90;99.90
49236;DHT22;35067;48.134;8.378;2023-05-07T05:25:24;10.90;99.90
49236;DHT22;35067;48.134;8.378;2023-05-07T05:26:24;10.90;99.90
49236;DHT22;35067;48.134;8.378;2023-05-07T05:27:26;11.00;99.90
49236;DHT22;35067;48.134;8.378;2023-05-07T05:28:26;13.30;99.90
49236;DHT22;35067;48.134;8.378;2023-05-07T05:29:28;12.80;99.90
49236;DHT22;35067;48.134;8.378;2023-05-07T05:30:29;11.40;99.90
49236;DHT22;35067;48.134;8.378;2023-05-07T05:31:29;11.40;99.90
49236;DHT22;35067;48.134;8.378;2023-05-07T05:32:30;11.50;99.90
49236;DHT22;35067;48.134;8.378;2023-05-07T05:33:31;11.60;99.90
49236;DHT22;35067;48.134;8.378;2023-05-07T05:34:31;11.60;99.90
49236;DHT22;35067;48.134;8.378;2023-05-07T05:35:33;11.60;99.90
49236;DHT22;35067;48.134;8.378;2023-05-07T05:36:35;11.70;99.90
49236;DHT22;35067;48.134;8.378;2023-05-07T05:37:35;12.40;99.90
49236;DHT22;35067;48.134;8.378;2023-05-07T05:38:36;11.90;99.90
49236;DHT22;35067;48.134;8.378;2023-05-07T05:39:37;11.90;99.90
49236;DHT22;35067;48.134;8.378;2023-05-07T05:40:38;12.60;99.90
49236;DHT22;35067;48.134;8.378;2023-05-07T05:41:38;12.70;99.90
49236;DHT22;35067;48.134;8.378;2023-05-07T05:42:39;12.00;99.90
49236;DHT22;35067;48.134;8.378;2023-05-07T05:43:40;12.00;99.90
49236;DHT22;35067;48.134;8.378;2023-05-07T05:44:40;12.10;99.90
49236;DHT22;35067;48.134;8.378;2023-05-07T05:45:41;12.20;99.90
49236;DHT22;35067;48.134;8.378;2023-05-07T05:46:42;12.30;99.90
49236;DHT22;35067;48.134;8.378;2023-05-07T05:47:43;12.30;99.90
49236;DHT22;35067;48.134;8.378;2023-05-07T05:48:43;12.30;99.90
49236;DHT22;35067;48.134;8.378;2023-05-07T05:49:44;12.30;99.90
49236;DHT22;35067;48.134;8.378;2023-05-07T05:50:45;13.90;99.90
49236;DHT22;35067;48.134;8.378;2023-05-07T05:51:45;12.50;99.90
49236;DHT22;35067;48.134;8.378;2023-05-07T05:52:46;13.80;99.90
49236;DHT22;35067;48.134;8.378;2023-05-07T05:53:47;13.20;99.90
49236;DHT22;35067;48.134;8.378;2023-05-07T05:54:47;13.20;99.90
49236;DHT22;35067;48.134;8.378;2023-05-07T05:55:49;12.70;99.90
49236;DHT22;35067;48.134;8.378;2023-05-07T05:56:50;14.60;99.90
49236;DHT22;35067;48.134;8.378;2023-05-07T05:57:51;12.80;99.90
49236;DHT22;35067;48.134;8.378;2023-05-07T05:58:51;12.90;99.90
49236;DHT22;35067;48.134;8.378;2023-05-07T05:59:52;14.30;99.90
49236;DHT22;35067;48.134;8.378;2023-05-07T06:00:53;13.00;99.90
49236;DHT22;35067;48.134;8.378;2023-05-07T06:01:54;13.60;99.90
49236;DHT22;35067;48.134;8.378;2023-05-07T06:02:55;13.40;99.90
49236;DHT22;35067;48.134;8.378;2023-05-07T06:03:56;13.20;99.90
49236;DHT22;35067;48.134;8.378;2023-05-07T06:04:56;13.30;99.90
49236;DHT22;35067;48.134;8.378;2023-05-07T06:05:57;14.00;99.90
49236;DHT22;35067;48.134;8.378;2023-05-07T06:06:58;13.40;99.90
49236;DHT22;35067;48.134;8.378;2023-05-07T06:07:59;13.50;99.90
49236;DHT22;35067;48.134;8.378;2023-05-07T06:08:59;13.50;99.90
49236;DHT22;35067;48.134;8.378;2023-05-07T06:10:01;13.50;99.90
49236;DHT22;35067;48.134;8.378;2023-05-07T06:11:02;14.10;99.90
49236;DHT22;35067;48.134;8.378;2023-05-07T06:12:03;13.70;99.90
49236;DHT22;35067;48.134;8.378;2023-05-07T06:13:05;13.70;99.90
49236;DHT22;35067;48.134;8.378;2023-05-07T06:14:05;13.60;99.90
49236;DHT22;35067;48.134;8.378;2023-05-07T06:15:06;14.10;99.90
49236;DHT22;35067;48.134;8.378;2023-05-07T06:16:07;13.60;99.90
49236;DHT22;35067;48.134;8.378;2023-05-07T06:17:08;13.50;99.90
49236;DHT22;35067;48.134;8.378;2023-05-07T06:18:09;13.50;99.90
49236;DHT22;35067;48.134;8.378;2023-05-07T06:19:09;14.90;99.90
49236;DHT22;35067;48.134;8.378;2023-05-07T06:20:10;14.30;99.90
49236;DHT22;35067;48.134;8.378;2023-05-07T06:21:11;13.40;99.90
49236;DHT22;35067;48.134;8.378;2023-05-07T06:22:11;14.00;99.90
49236;DHT22;35067;48.134;8.378;2023-05-07T06:23:13;13.30;99.90
49236;DHT22;35067;48.134;8.378;2023-05-07T06:24:14;14.80;99.90
49236;DHT22;35067;48.134;8.378;2023-05-07T06:25:15;13.40;99.90
49236;DHT22;35067;48.134;8.378;2023-05-07T06:26:15;13.50;99.90
49236;DHT22;35067;48.134;8.378;2023-05-07T06:27:16;13.60;99.90
49236;DHT22;35067;48.134;8.378;2023-05-07T06:28:17;13.90;99.90
49236;DHT22;35067;48.134;8.378;2023-05-07T06:29:18;14.30;99.90